createdAt,value
2022-11-23T00:01:41.032Z,80.17
2022-11-23T00:04:13.900Z,82.27
2022-11-23T00:06:42.971Z,85.97
2022-11-23T00:09:12.693Z,73.67
2022-11-23T00:11:42.509Z,77.40
2022-11-23T00:14:11.163Z,78.87
2022-11-23T00:16:49.092Z,82.43
2022-11-23T00:19:17.589Z,70.43
2022-11-23T00:21:46.292Z,76.57
2022-11-23T00:24:15.191Z,76.30
2022-11-23T00:26:45.035Z,80.37
2022-11-23T00:29:13.620Z,78.77
2022-11-23T00:31:42.061Z,80.20
2022-11-23T00:34:10.448Z,78.90
2022-11-23T00:36:38.821Z,74.60
2022-11-23T00:39:07.210Z,79.63
2022-11-23T00:41:35.660Z,73.13
2022-11-23T00:44:06.065Z,73.63
2022-11-23T00:46:34.396Z,77.13
2022-11-23T00:49:02.767Z,74.53
2022-11-23T00:51:32.637Z,90.53
2022-11-23T00:54:01.625Z,93.33
2022-11-23T00:56:31.481Z,91.67
2022-11-23T00:59:01.859Z,85.33
2022-11-23T01:01:34.326Z,77.30
2022-11-23T01:04:04.157Z,78.07
2022-11-23T01:06:34.949Z,78.97
2022-11-23T01:09:06.319Z,74.57
2022-11-23T01:11:35.419Z,72.63
2022-11-23T01:14:04.381Z,80.87
2022-11-23T01:16:36.690Z,73.33
2022-11-23T01:19:07.442Z,73.80
2022-11-23T01:21:36.812Z,70.93
2022-11-23T01:24:07.564Z,72.97
2022-11-23T01:26:36.330Z,68.80
2022-11-23T01:29:05.684Z,69.27
2022-11-23T01:31:35.569Z,67.67
2022-11-23T01:34:05.024Z,66.07
2022-11-23T01:36:35.191Z,65.33
2022-11-23T01:39:04.661Z,67.13
2022-11-23T01:41:35.467Z,69.87
2022-11-23T01:44:29.153Z,68.00
2022-11-23T01:47:00.922Z,68.00
2022-11-23T01:49:35.115Z,67.20
2022-11-23T01:52:09.173Z,69.03
2022-11-23T01:54:41.399Z,70.47
2022-11-23T01:57:14.865Z,65.93
2022-11-23T01:59:43.272Z,65.23
2022-11-23T02:02:14.109Z,69.93
2022-11-23T02:04:46.744Z,61.57
2022-11-23T02:07:16.348Z,65.07
2022-11-23T02:09:46.502Z,64.77
2022-11-23T02:12:15.702Z,66.23
2022-11-23T02:14:44.436Z,64.70
2022-11-23T02:17:14.481Z,61.83
2022-11-23T02:19:50.521Z,63.77
2022-11-23T02:22:25.924Z,63.87
2022-11-23T02:24:56.553Z,62.37
2022-11-23T02:27:28.358Z,59.27
2022-11-23T02:29:58.977Z,65.43
2022-11-23T02:32:27.899Z,64.57
2022-11-23T02:34:56.274Z,66.00
2022-11-23T02:37:25.187Z,63.60
2022-11-23T02:39:56.537Z,61.57
2022-11-23T02:45:23.550Z,63.17
2022-11-23T02:50:37.782Z,57.00
2022-11-23T02:53:06.263Z,58.90
2022-11-23T02:55:35.091Z,57.53
2022-11-23T02:58:06.435Z,56.40
2022-11-23T03:00:35.119Z,54.80
2022-11-23T03:03:04.415Z,53.77
2022-11-23T03:05:32.914Z,61.37
2022-11-23T03:08:01.659Z,58.63
2022-11-23T03:10:30.181Z,57.23
2022-11-23T03:12:59.007Z,53.87
2022-11-23T03:15:29.144Z,58.70
2022-11-23T03:17:59.494Z,57.10
2022-11-23T03:20:27.821Z,58.93
2022-11-23T03:22:56.209Z,52.53
2022-11-23T03:25:24.541Z,54.23
2022-11-23T03:27:52.921Z,53.63
2022-11-23T03:30:21.450Z,53.53
2022-11-23T03:32:51.363Z,58.93
2022-11-23T03:35:20.066Z,60.07
2022-11-23T03:37:48.436Z,62.03
2022-11-23T03:40:17.162Z,69.50
2022-11-23T03:42:45.532Z,69.80
2022-11-23T03:45:14.113Z,71.63
2022-11-23T03:47:42.565Z,63.40
2022-11-23T03:50:12.694Z,69.33
2022-11-23T03:52:41.094Z,77.53
2022-11-23T03:55:10.529Z,67.20
2022-11-23T03:57:38.864Z,65.90
2022-11-23T04:00:08.933Z,67.40
2022-11-23T04:02:37.334Z,67.97
2022-11-23T04:05:06.382Z,64.90
2022-11-23T04:07:36.555Z,61.57
2022-11-23T04:10:05.934Z,62.57
2022-11-23T04:12:34.327Z,59.83
2022-11-23T04:15:02.776Z,60.50
2022-11-23T04:17:31.154Z,61.60
2022-11-23T04:19:59.878Z,55.93
2022-11-23T04:22:28.242Z,58.97
2022-11-23T04:24:58.009Z,56.17
2022-11-23T04:27:26.366Z,58.23
2022-11-23T04:29:54.711Z,62.90
2022-11-23T04:32:23.034Z,55.63
2022-11-23T04:34:51.383Z,52.57
2022-11-23T04:37:19.805Z,47.40
2022-11-23T04:39:48.396Z,53.50
2022-11-23T04:42:18.303Z,53.80
2022-11-23T04:44:47.600Z,59.73
2022-11-23T04:47:16.253Z,55.30
2022-11-23T04:49:44.655Z,56.23
2022-11-23T04:52:13.029Z,62.73
2022-11-23T04:54:41.417Z,56.73
2022-11-23T04:57:10.043Z,55.53
2022-11-23T04:59:39.852Z,51.17
2022-11-23T05:02:08.572Z,56.23
2022-11-23T05:04:37.002Z,54.40
2022-11-23T05:07:05.512Z,56.80
2022-11-23T05:09:34.170Z,47.90
2022-11-23T05:12:02.734Z,49.97
2022-11-23T05:14:31.966Z,60.47
2022-11-23T05:17:02.003Z,60.33
2022-11-23T05:19:30.780Z,64.20
2022-11-23T05:21:59.543Z,55.83
2022-11-23T05:24:27.936Z,57.80
2022-11-23T05:26:56.563Z,63.03
2022-11-23T05:29:24.981Z,62.00
2022-11-23T05:31:53.783Z,57.50
2022-11-23T05:34:23.918Z,56.40
2022-11-23T05:36:52.314Z,58.43
2022-11-23T05:39:21.017Z,62.03
2022-11-23T05:41:49.390Z,55.73
2022-11-23T05:44:17.864Z,53.77
2022-11-23T05:46:46.233Z,57.90
2022-11-23T05:49:14.781Z,55.17
2022-11-23T05:51:44.606Z,55.23
2022-11-23T05:54:13.393Z,54.50
2022-11-23T05:56:41.784Z,49.13
2022-11-23T05:59:10.465Z,54.10
2022-11-23T06:01:38.804Z,47.23
2022-11-23T06:04:07.743Z,50.93
2022-11-23T06:06:36.300Z,57.93
2022-11-23T06:09:06.138Z,50.83
2022-11-23T06:11:35.471Z,50.40
2022-11-23T06:14:04.561Z,55.73
2022-11-23T06:16:33.538Z,54.70
2022-11-23T06:19:01.964Z,54.57
2022-11-23T06:21:30.334Z,56.27
2022-11-23T06:23:58.712Z,57.20
2022-11-23T06:26:28.499Z,55.73
2022-11-23T06:28:56.802Z,60.63
2022-11-23T06:31:25.436Z,58.00
2022-11-23T06:33:54.206Z,56.47
2022-11-23T06:36:22.614Z,60.60
2022-11-23T06:38:51.011Z,59.90
2022-11-23T06:41:19.383Z,59.80
2022-11-23T06:43:49.800Z,55.33
2022-11-23T06:46:19.495Z,61.73
2022-11-23T06:48:48.714Z,58.13
2022-11-23T06:51:17.630Z,56.83
2022-11-23T06:53:46.078Z,59.00
2022-11-23T06:56:14.391Z,65.83
2022-11-23T06:58:42.928Z,58.33
2022-11-23T07:01:14.162Z,61.73
2022-11-23T07:03:42.657Z,57.63
2022-11-23T07:06:12.250Z,53.83
2022-11-23T07:08:43.663Z,50.27
2022-11-23T07:11:13.315Z,56.90
2022-11-23T07:13:41.763Z,54.03
2022-11-23T07:16:10.328Z,55.47
2022-11-23T07:18:40.406Z,55.13
2022-11-23T07:21:09.026Z,52.93
2022-11-23T07:23:40.962Z,51.13
2022-11-23T07:26:09.997Z,52.40
2022-11-23T07:28:38.634Z,58.53
2022-11-23T07:31:07.461Z,51.90
2022-11-23T07:33:35.891Z,60.30
2022-11-23T07:36:06.218Z,56.03
2022-11-23T07:38:34.705Z,59.87
2022-11-23T07:41:04.022Z,64.37
2022-11-23T07:43:32.717Z,62.37
2022-11-23T07:46:01.165Z,60.63
2022-11-23T07:48:34.715Z,58.93
2022-11-23T07:51:06.028Z,63.80
2022-11-23T07:53:36.127Z,62.50
2022-11-23T07:56:04.713Z,53.20
2022-11-23T07:58:34.899Z,59.90
2022-11-23T08:01:03.401Z,58.67
2022-11-23T08:03:31.811Z,56.57
2022-11-23T08:06:00.274Z,62.03
2022-11-23T08:08:30.349Z,58.63
2022-11-23T08:10:59.083Z,65.90
2022-11-23T08:13:27.413Z,70.80
2022-11-23T08:15:56.226Z,65.17
2022-11-23T08:18:25.014Z,76.57
2022-11-23T08:20:53.682Z,73.50
2022-11-23T08:23:22.423Z,79.03
2022-11-23T08:25:52.549Z,68.00
2022-11-23T08:28:21.451Z,70.87
2022-11-23T08:30:50.549Z,64.93
2022-11-23T08:33:19.648Z,56.67
2022-11-23T08:35:48.186Z,58.97
2022-11-23T08:38:16.624Z,59.00
2022-11-23T08:40:44.980Z,65.77
2022-11-23T08:43:15.844Z,57.53
2022-11-23T08:45:44.253Z,53.77
2022-11-23T08:48:12.643Z,56.70
2022-11-23T08:50:41.327Z,62.07
2022-11-23T08:53:10.588Z,65.43
2022-11-23T08:55:39.024Z,61.10
2022-11-23T08:58:13.206Z,62.07
2022-11-23T09:00:43.437Z,60.50
2022-11-23T09:03:11.846Z,50.73
2022-11-23T09:05:40.794Z,51.80
2022-11-23T09:08:09.287Z,55.17
2022-11-23T09:10:38.332Z,53.67
2022-11-23T09:13:06.688Z,49.50
2022-11-23T09:15:35.160Z,56.30
2022-11-23T09:18:05.435Z,54.10
2022-11-23T09:20:33.782Z,51.77
2022-11-23T09:23:02.181Z,52.43
2022-11-23T09:25:30.629Z,53.53
2022-11-23T09:28:00.357Z,56.37
2022-11-23T09:30:29.661Z,51.60
2022-11-23T09:32:58.442Z,57.03
2022-11-23T09:35:28.875Z,62.87
2022-11-23T09:37:58.639Z,70.83
2022-11-23T09:40:32.059Z,53.40
2022-11-23T09:43:23.519Z,53.30
2022-11-23T09:45:55.147Z,57.90
2022-11-23T09:48:35.531Z,70.43
2022-11-23T09:51:13.555Z,57.60
2022-11-23T09:53:46.577Z,63.17
2022-11-23T09:56:20.001Z,58.53
2022-11-23T09:58:49.877Z,51.10
2022-11-23T10:01:18.585Z,59.60
2022-11-23T10:03:49.373Z,55.23
2022-11-23T10:06:22.672Z,47.83
2022-11-23T10:09:20.433Z,48.80
2022-11-23T10:12:06.112Z,47.60
2022-11-23T10:14:48.113Z,49.20
2022-11-23T10:17:26.507Z,130.63
2022-11-23T10:20:10.774Z,93.37
2022-11-23T10:22:50.403Z,54.97
2022-11-23T10:25:20.803Z,46.87
2022-11-23T10:27:51.703Z,54.03
2022-11-23T10:30:21.920Z,49.20
2022-11-23T10:32:55.175Z,46.77
2022-11-23T10:35:30.529Z,44.53
2022-11-23T10:38:18.497Z,49.23
2022-11-23T10:40:57.398Z,52.90
2022-11-23T10:43:30.099Z,50.40
2022-11-23T10:46:31.201Z,58.20
2022-11-23T10:49:14.699Z,51.83
2022-11-23T10:51:51.213Z,51.63
2022-11-23T10:54:26.026Z,49.70
2022-11-23T10:56:55.827Z,50.10
2022-11-23T10:59:36.206Z,45.47
2022-11-23T11:02:16.355Z,51.50
2022-11-23T11:04:44.983Z,43.70
2022-11-23T11:07:25.921Z,43.57
2022-11-23T11:09:57.926Z,46.43
2022-11-23T11:12:27.454Z,42.50
2022-11-23T11:15:10.889Z,44.20
2022-11-23T11:17:42.365Z,48.63
2022-11-23T11:20:32.980Z,46.67
2022-11-23T11:23:04.151Z,44.77
2022-11-23T11:25:37.631Z,45.07
2022-11-23T11:28:08.166Z,45.70
2022-11-23T11:30:45.620Z,48.23
2022-11-23T11:33:19.867Z,46.40
2022-11-23T11:35:53.180Z,46.47
2022-11-23T11:38:29.927Z,44.77
2022-11-23T11:41:02.277Z,45.20
2022-11-23T11:43:40.103Z,38.50
2022-11-23T11:46:28.969Z,45.30
2022-11-23T11:49:05.791Z,42.20
2022-11-23T11:51:38.256Z,41.10
2022-11-23T11:54:14.672Z,39.00
2022-11-23T11:56:47.886Z,47.17
2022-11-23T11:59:22.159Z,38.73
2022-11-23T12:01:59.479Z,43.50
2022-11-23T12:04:36.913Z,42.13
2022-11-23T12:07:13.771Z,42.50
2022-11-23T12:09:48.262Z,48.37
2022-11-23T12:12:25.212Z,45.20
2022-11-23T12:14:58.842Z,45.27
2022-11-23T12:17:59.130Z,39.97
2022-11-23T12:20:39.175Z,42.77
2022-11-23T12:23:20.388Z,40.50
2022-11-23T12:25:59.962Z,39.90
2022-11-23T12:28:45.729Z,46.07
2022-11-23T12:31:26.109Z,45.87
2022-11-23T12:34:08.612Z,46.23
2022-11-23T12:37:00.822Z,44.83
2022-11-23T12:39:59.909Z,45.87
2022-11-23T12:42:40.541Z,53.23
2022-11-23T12:45:30.718Z,50.87
2022-11-23T12:48:15.742Z,49.30
2022-11-23T12:50:55.200Z,48.83
2022-11-23T12:53:35.676Z,42.53
2022-11-23T12:56:13.011Z,47.90
2022-11-23T12:58:44.993Z,45.60
2022-11-23T13:01:21.026Z,44.80
2022-11-23T13:04:18.888Z,46.63
2022-11-23T13:07:35.975Z,45.27
2022-11-23T13:10:41.641Z,44.67
2022-11-23T13:13:23.933Z,43.97
2022-11-23T13:16:17.957Z,49.67
2022-11-23T13:19:05.194Z,43.60
2022-11-23T13:21:39.213Z,47.13
2022-11-23T13:24:26.485Z,43.10
2022-11-23T13:27:31.427Z,42.50
2022-11-23T13:30:01.717Z,47.67
2022-11-23T13:32:46.573Z,45.53
2022-11-23T13:35:55.011Z,45.37
2022-11-23T13:38:42.420Z,44.73
2022-11-23T13:41:56.415Z,39.53
2022-11-23T13:44:28.904Z,43.17
2022-11-23T13:47:19.658Z,42.00
2022-11-23T13:49:50.316Z,141.97
2022-11-23T13:52:38.299Z,98.17
2022-11-23T13:55:22.689Z,51.43
2022-11-23T13:58:24.512Z,48.07
2022-11-23T14:00:54.716Z,44.80
2022-11-23T14:03:52.480Z,47.33
2022-11-23T14:06:27.528Z,48.73
2022-11-23T14:09:06.216Z,42.83
2022-11-23T14:11:40.713Z,52.47
2022-11-23T14:14:19.992Z,61.30
2022-11-23T14:17:09.265Z,54.27
2022-11-23T14:19:45.633Z,61.30
2022-11-23T14:22:22.030Z,53.77
2022-11-23T14:25:21.518Z,52.23
2022-11-23T14:28:00.408Z,54.83
2022-11-23T14:30:50.738Z,53.43
2022-11-23T14:33:30.296Z,49.90
2022-11-23T14:36:13.076Z,51.97
2022-11-23T14:39:06.036Z,52.90
2022-11-23T14:41:37.512Z,60.63
2022-11-23T14:44:07.410Z,56.33
2022-11-23T14:46:35.844Z,53.43
2022-11-23T14:49:12.704Z,58.73
2022-11-23T14:51:45.062Z,57.07
2022-11-23T14:54:15.548Z,69.77
2022-11-23T14:56:48.035Z,80.17
2022-11-23T14:59:24.269Z,77.10
2022-11-23T15:01:54.868Z,67.00
2022-11-23T15:04:26.304Z,64.07
2022-11-23T15:06:59.658Z,60.93
2022-11-23T15:09:49.020Z,62.17
2022-11-23T15:12:29.984Z,60.87
2022-11-23T15:14:58.709Z,61.10
2022-11-23T15:17:27.812Z,69.37
2022-11-23T15:19:57.760Z,71.07
2022-11-23T15:22:27.278Z,76.97
2022-11-23T15:24:56.726Z,76.73
2022-11-23T15:27:29.871Z,78.37
2022-11-23T15:30:00.920Z,72.67
2022-11-23T15:32:33.246Z,76.63
2022-11-23T15:35:07.079Z,73.50
2022-11-23T15:37:44.027Z,69.83
2022-11-23T15:40:15.246Z,67.10
2022-11-23T15:42:46.497Z,66.20
2022-11-23T15:45:37.447Z,69.53
2022-11-23T15:48:07.974Z,83.30
2022-11-23T15:50:45.365Z,83.33
2022-11-23T15:53:13.727Z,80.13
2022-11-23T15:55:43.038Z,85.93
2022-11-23T15:58:18.849Z,80.53
2022-11-23T16:00:51.833Z,85.50
2022-11-23T16:03:31.244Z,81.10
2022-11-23T16:06:26.318Z,80.33
2022-11-23T16:08:54.693Z,106.83
2022-11-23T16:11:34.821Z,100.97
2022-11-23T16:14:19.309Z,101.43
2022-11-23T16:16:49.503Z,101.63
2022-11-23T16:19:29.119Z,100.87
2022-11-23T16:22:02.978Z,102.67
2022-11-23T16:24:33.926Z,100.30
2022-11-23T16:27:02.779Z,134.73
2022-11-23T16:29:37.855Z,177.57
2022-11-23T16:32:07.584Z,201.53
2022-11-23T16:34:36.775Z,179.53
2022-11-23T16:37:05.337Z,145.53
2022-11-23T16:39:33.796Z,126.17
2022-11-23T16:42:02.202Z,116.57
2022-11-23T16:44:36.255Z,114.33
2022-11-23T16:47:26.858Z,108.70
2022-11-23T16:49:56.278Z,109.77
2022-11-23T16:52:25.081Z,111.93
2022-11-23T16:54:54.074Z,123.63
2022-11-23T16:57:30.422Z,129.53
2022-11-23T17:00:03.430Z,123.13
2022-11-23T17:02:32.089Z,118.10
2022-11-23T17:05:01.274Z,112.93
2022-11-23T17:07:29.732Z,128.00
2022-11-23T17:10:00.154Z,127.70
2022-11-23T17:12:28.920Z,127.67
2022-11-23T17:14:57.311Z,127.50
2022-11-23T17:17:27.077Z,118.93
2022-11-23T17:19:59.686Z,115.40
2022-11-23T17:22:31.015Z,119.13
2022-11-23T17:24:59.334Z,106.97
2022-11-23T17:27:27.841Z,110.50
2022-11-23T17:30:00.573Z,107.23
2022-11-23T17:32:30.614Z,107.17
2022-11-23T17:34:59.203Z,102.67
2022-11-23T17:37:28.011Z,111.53
2022-11-23T17:39:56.411Z,120.57
2022-11-23T17:42:24.802Z,134.27
2022-11-23T17:44:53.187Z,143.03
2022-11-23T17:47:26.361Z,142.30
2022-11-23T17:49:56.372Z,144.43
2022-11-23T17:52:25.176Z,125.70
2022-11-23T17:54:53.852Z,191.63
2022-11-23T17:57:25.392Z,142.03
2022-11-23T17:59:54.351Z,142.63
2022-11-23T18:02:22.959Z,132.13
2022-11-23T18:04:51.364Z,114.57
2022-11-23T18:07:21.210Z,118.43
2022-11-23T18:09:50.590Z,129.63
2022-11-23T18:12:19.527Z,134.90
2022-11-23T18:14:48.111Z,125.60
2022-11-23T18:17:17.273Z,124.00
2022-11-23T18:19:45.645Z,127.77
2022-11-23T18:22:14.043Z,121.83
2022-11-23T18:24:43.877Z,116.30
2022-11-23T18:27:13.657Z,133.67
2022-11-23T18:29:42.057Z,122.07
2022-11-23T18:32:10.920Z,134.57
2022-11-23T18:34:39.335Z,123.00
2022-11-23T18:37:08.075Z,111.33
2022-11-23T18:39:36.495Z,116.90
2022-11-23T18:42:06.503Z,117.80
2022-11-23T18:44:35.229Z,121.37
2022-11-23T18:47:03.711Z,118.93
2022-11-23T18:49:32.495Z,117.30
2022-11-23T18:52:01.283Z,120.70
2022-11-23T18:54:29.905Z,119.00
2022-11-23T18:56:58.592Z,113.60
2022-11-23T18:59:56.232Z,118.40
2022-11-23T19:02:17.287Z,119.93
2022-11-23T19:04:45.728Z,147.47
2022-11-23T19:07:14.088Z,185.17
2022-11-23T19:09:42.478Z,162.67
2022-11-23T19:12:11.252Z,128.60
2022-11-23T19:14:41.174Z,132.50
2022-11-23T19:17:09.730Z,120.67
2022-11-23T19:19:38.511Z,112.37
2022-11-23T19:22:06.946Z,106.47
2022-11-23T19:24:35.452Z,105.77
2022-11-23T19:27:04.197Z,109.33
2022-11-23T19:29:32.508Z,106.33
2022-11-23T19:32:02.724Z,112.47
2022-11-23T19:34:31.075Z,111.60
2022-11-23T19:36:59.523Z,99.93
2022-11-23T19:39:27.988Z,101.60
2022-11-23T19:41:56.804Z,96.80
2022-11-23T19:44:25.353Z,89.97
2022-11-23T19:46:54.707Z,102.53
2022-11-23T19:49:26.158Z,108.60
2022-11-23T19:51:56.638Z,121.90
2022-11-23T19:54:25.214Z,127.23
2022-11-23T19:56:54.185Z,122.60
2022-11-23T19:59:23.408Z,112.13
2022-11-23T20:01:51.905Z,126.00
2022-11-23T20:04:20.559Z,116.43
2022-11-23T20:06:50.765Z,126.00
2022-11-23T20:09:21.341Z,126.10
2022-11-23T20:11:51.438Z,131.03
2022-11-23T20:14:20.792Z,155.23
2022-11-23T20:16:49.699Z,230.93
2022-11-23T20:19:18.436Z,223.07
2022-11-23T20:21:47.984Z,201.07
2022-11-23T20:24:18.279Z,175.10
2022-11-23T20:26:47.090Z,147.23
2022-11-23T20:29:15.504Z,157.07
2022-11-23T20:31:45.897Z,160.83
2022-11-23T20:34:20.485Z,161.60
2022-11-23T20:36:50.600Z,163.03
2022-11-23T20:39:20.711Z,150.53
2022-11-23T20:41:50.017Z,134.33
2022-11-23T20:44:18.999Z,129.47
2022-11-23T20:47:03.636Z,134.57
2022-11-23T20:49:32.912Z,136.67
2022-11-23T20:52:02.732Z,133.87
2022-11-23T20:54:33.395Z,113.27
2022-11-23T20:57:02.570Z,102.77
2022-11-23T20:59:33.078Z,96.17
2022-11-23T21:02:02.396Z,96.77
2022-11-23T21:04:31.290Z,97.30
2022-11-23T21:07:00.115Z,105.57
2022-11-23T21:09:29.047Z,101.10
2022-11-23T21:12:16.800Z,105.93
2022-11-23T21:14:45.251Z,101.33
2022-11-23T21:17:15.213Z,102.13
2022-11-23T21:19:43.694Z,97.00
2022-11-23T21:22:14.014Z,85.00
2022-11-23T21:24:42.640Z,82.73
2022-11-23T21:27:14.797Z,77.27
2022-11-23T21:29:44.481Z,77.37
2022-11-23T21:32:14.983Z,80.77
2022-11-23T21:34:43.383Z,81.10
2022-11-23T21:37:12.719Z,96.13
2022-11-23T21:39:41.441Z,431.17
2022-11-23T21:42:09.859Z,327.17
2022-11-23T21:44:40.127Z,521.40
2022-11-23T21:47:08.606Z,314.37
2022-11-23T21:49:37.048Z,131.73
2022-11-23T21:52:05.507Z,83.93
2022-11-23T21:54:35.648Z,83.93
2022-11-23T21:57:04.729Z,80.00
2022-11-23T21:59:33.134Z,82.87
2022-11-23T22:05:46.547Z,135.33
2022-11-23T22:08:28.809Z,106.20
2022-11-23T22:10:58.430Z,99.20
2022-11-23T22:13:29.554Z,140.73
2022-11-23T22:16:01.471Z,209.93
2022-11-23T22:18:31.505Z,159.00
2022-11-23T22:21:06.809Z,94.43
2022-11-23T22:23:35.506Z,79.30
2022-11-23T22:26:04.466Z,80.93
2022-11-23T22:28:34.317Z,82.10
2022-11-23T22:31:04.200Z,73.27
2022-11-23T22:33:33.690Z,83.87
2022-11-23T22:36:03.200Z,80.80
2022-11-23T22:38:34.070Z,80.67
2022-11-23T22:41:04.105Z,79.97
2022-11-23T22:43:32.973Z,80.13
2022-11-23T22:46:05.849Z,79.90
2022-11-23T22:48:37.008Z,73.20
2022-11-23T22:51:05.887Z,70.00
2022-11-23T22:53:44.034Z,73.07
2022-11-23T22:56:15.164Z,70.30
2022-11-23T22:58:44.843Z,75.77
2022-11-23T23:01:15.415Z,76.43
2022-11-23T23:03:44.535Z,76.13
2022-11-23T23:06:17.907Z,79.77
2022-11-23T23:09:01.570Z,254.50
2022-11-23T23:11:32.523Z,431.03
2022-11-23T23:14:01.163Z,460.97
2022-11-23T23:16:30.352Z,532.00
2022-11-23T23:18:59.968Z,294.00
2022-11-23T23:21:30.230Z,101.50
2022-11-23T23:24:03.281Z,459.57
2022-11-23T23:26:32.288Z,488.30
2022-11-23T23:29:02.268Z,489.53
2022-11-23T23:31:31.398Z,125.30
2022-11-23T23:34:01.441Z,74.07
2022-11-23T23:36:31.038Z,74.37
2022-11-23T23:39:05.238Z,76.87
2022-11-23T23:41:34.085Z,78.33
2022-11-23T23:44:02.866Z,70.20
2022-11-23T23:46:31.569Z,66.87
2022-11-23T23:49:01.023Z,68.83
2022-11-23T23:51:29.639Z,70.80
2022-11-23T23:54:00.682Z,72.37
2022-11-23T23:56:30.499Z,69.90
2022-11-23T23:59:00.544Z,76.83
